Time;durP1;ratioP1;P1;durP2;ratioP2;P2;SDS_P1;SDS_P2;PMS_P1;PMS_P2;Temp;Humidity;BMP_temperature;BMP_pressure;BME280_temperature;BME280_humidity;BME280_pressure;Samples;Min_cycle;Max_cycle;Signal;HPM_P1;HPM_P2
2022/08/22 00:02:30;;;;;;;5.25;1.98;;;15.50;99.90;;;;;;5082255;28;20132;-85
2022/08/22 00:05:07;;;;;;;4.47;1.85;;;15.50;99.90;;;;;;5079854;28;20495;-84
2022/08/22 00:07:48;;;;;;;3.33;1.70;;;15.50;99.90;;;;;;5088907;28;20024;-85
2022/08/22 00:10:37;;;;;;;2.55;1.45;;;15.50;99.90;;;;;;5088947;28;20126;-84
2022/08/22 00:13:03;;;;;;;2.22;1.40;;;15.50;99.90;;;;;;5075643;28;20033;-85
2022/08/22 00:15:50;;;;;;;7.90;2.25;;;15.50;99.90;;;;;;5086240;28;20040;-84
2022/08/22 00:18:30;;;;;;;4.40;2.38;;;15.50;99.90;;;;;;5083077;28;20041;-85
2022/08/22 00:21:09;;;;;;;4.50;1.92;;;15.50;99.90;;;;;;5082298;28;20382;-85
2022/08/22 00:23:49;;;;;;;4.82;2.00;;;15.50;99.90;;;;;;5078109;28;20046;-85
2022/08/22 00:26:20;;;;;;;7.00;1.95;;;15.50;99.90;;;;;;5075252;28;20024;-85
2022/08/22 00:28:54;;;;;;;6.28;1.70;;;15.50;99.90;;;;;;5081333;28;20370;-85
2022/08/22 00:31:19;;;;;;;4.10;2.17;;;15.40;99.90;;;;;;5083516;28;20465;-85
2022/08/22 00:34:00;;;;;;;5.70;2.03;;;15.40;99.90;;;;;;5082394;28;20044;-84
2022/08/22 00:37:02;;;;;;;5.93;1.80;;;15.40;99.90;;;;;;5083741;28;20112;-85
2022/08/22 00:39:33;;;;;;;6.80;1.80;;;15.40;99.90;;;;;;5069649;28;20060;-85
2022/08/22 00:42:04;;;;;;;3.95;1.98;;;15.30;99.90;;;;;;5080734;28;20031;-85
2022/08/22 00:45:00;;;;;;;4.75;1.90;;;15.40;99.90;;;;;;5074976;28;20025;-84
2022/08/22 00:47:48;;;;;;;4.53;1.67;;;15.40;99.90;;;;;;5075028;28;20055;-85
2022/08/22 00:50:32;;;;;;;6.90;2.50;;;15.40;99.90;;;;;;5085016;28;20039;-86
2022/08/22 00:53:34;;;;;;;5.03;1.80;;;15.40;99.90;;;;;;5092844;28;20451;-84
2022/08/22 00:56:09;;;;;;;3.65;1.38;;;15.30;99.90;;;;;;5089083;28;20055;-84
2022/08/22 00:59:07;;;;;;;3.78;2.15;;;15.30;99.90;;;;;;5091587;28;20051;-85
2022/08/22 01:01:48;;;;;;;9.70;2.10;;;15.30;99.90;;;;;;5073256;28;20485;-88
2022/08/22 01:04:40;;;;;;;4.20;1.50;;;15.30;99.90;;;;;;5088525;28;20038;-85
2022/08/22 01:07:38;;;;;;;4.68;1.83;;;15.20;99.90;;;;;;5071597;28;20039;-85
2022/08/22 01:10:23;;;;;;;5.97;1.88;;;15.20;99.90;;;;;;5080626;28;20043;-89
2022/08/22 01:13:07;;;;;;;3.50;1.65;;;15.20;99.90;;;;;;5083547;28;20080;-86
2022/08/22 01:15:35;;;;;;;7.10;1.70;;;15.20;99.90;;;;;;5087164;28;20028;-86
2022/08/22 01:18:26;;;;;;;3.08;1.67;;;15.10;99.90;;;;;;5082967;28;20043;-84
2022/08/22 01:21:33;;;;;;;2.63;1.65;;;15.10;99.90;;;;;;5086195;28;20063;-84
2022/08/22 01:24:18;;;;;;;4.90;2.13;;;15.10;99.90;;;;;;5080587;28;20500;-84
2022/08/22 01:27:24;;;;;;;5.78;1.40;;;15.00;99.90;;;;;;5082375;28;20036;-85
2022/08/22 01:29:58;;;;;;;2.65;1.70;;;15.00;99.90;;;;;;5076088;28;20032;-86
2022/08/22 01:32:32;;;;;;;4.55;1.67;;;14.90;99.90;;;;;;5111064;27;20052;-86
2022/08/22 01:35:16;;;;;;;4.95;2.22;;;14.90;99.90;;;;;;5083393;28;20028;-84
2022/08/22 01:38:03;;;;;;;5.53;1.92;;;14.90;99.90;;;;;;5078631;28;20028;-85
2022/08/22 01:41:00;;;;;;;5.18;2.00;;;14.90;99.90;;;;;;5071962;28;20028;-85
2022/08/22 01:43:54;;;;;;;4.53;1.77;;;14.90;99.90;;;;;;5053634;28;20032;-85
2022/08/22 01:46:27;;;;;;;3.78;1.70;;;14.90;99.90;;;;;;5061388;27;20515;-84
2022/08/22 01:49:14;;;;;;;8.55;2.00;;;14.90;99.90;;;;;;5085540;28;20372;-85
2022/08/22 01:51:53;;;;;;;5.00;1.73;;;14.90;99.90;;;;;;5079229;28;20055;-85
2022/08/22 01:54:43;;;;;;;4.03;2.17;;;14.80;99.90;;;;;;5089640;28;20051;-85
2022/08/22 01:57:11;;;;;;;10.38;2.22;;;14.80;99.90;;;;;;5073768;28;20064;-85
2022/08/22 01:59:43;;;;;;;2.92;1.70;;;14.70;99.90;;;;;;5080456;28;20059;-85
2022/08/22 02:02:39;;;;;;;5.60;2.28;;;14.70;99.90;;;;;;5088282;28;20434;-85
2022/08/22 02:05:23;;;;;;;4.57;1.77;;;14.70;99.90;;;;;;5083087;28;20056;-85
2022/08/22 02:08:18;;;;;;;4.03;2.00;;;14.70;99.90;;;;;;5087610;28;20036;-88
2022/08/22 02:10:58;;;;;;;3.00;1.60;;;14.70;99.90;;;;;;5061646;28;20032;-84
2022/08/22 02:13:44;;;;;;;8.13;2.60;;;14.60;99.90;;;;;;5088118;28;20135;-85
2022/08/22 02:16:19;;;;;;;9.60;2.20;;;14.60;99.90;;;;;;5086999;28;20055;-86
2022/08/22 02:19:14;;;;;;;4.93;2.38;;;14.50;99.90;;;;;;5082790;28;20048;-85
2022/08/22 02:22:11;;;;;;;5.68;1.90;;;14.60;99.90;;;;;;5067326;28;20043;-84
2022/08/22 02:24:58;;;;;;;7.35;2.22;;;14.60;99.90;;;;;;5051332;28;20035;-86
2022/08/22 02:28:08;;;;;;;3.63;1.92;;;14.50;99.90;;;;;;5086305;28;20048;-84
2022/08/22 02:31:00;;;;;;;2.85;1.75;;;14.50;99.90;;;;;;5078754;28;20039;-88
2022/08/22 02:33:56;;;;;;;2.50;1.75;;;14.50;99.90;;;;;;5062011;28;20024;-85
2022/08/22 02:36:42;;;;;;;1.50;1.17;;;14.50;99.90;;;;;;5073042;28;20131;-85
2022/08/22 02:39:26;;;;;;;2.40;1.70;;;14.50;99.90;;;;;;5087245;28;20401;-84
2022/08/22 02:41:58;;;;;;;3.90;1.90;;;14.50;99.90;;;;;;5089434;28;20024;-86
2022/08/22 02:44:32;;;;;;;3.30;1.83;;;14.50;99.90;;;;;;5083581;28;20036;-84
2022/08/22 02:47:14;;;;;;;4.57;2.08;;;14.40;99.90;;;;;;5089250;28;20028;-85
2022/08/22 02:50:07;;;;;;;9.50;2.55;;;14.40;99.90;;;;;;5083352;28;20077;-84
2022/08/22 02:52:44;;;;;;;3.55;1.73;;;14.40;99.90;;;;;;5081120;28;20376;-85
2022/08/22 02:55:20;;;;;;;4.00;1.98;;;14.40;99.90;;;;;;5075847;28;20070;-84
2022/08/22 02:58:46;;;;;;;6.25;2.38;;;14.30;99.90;;;;;;5051056;28;20899;-83
2022/08/22 03:01:27;;;;;;;3.95;1.92;;;14.30;99.90;;;;;;5051756;28;20037;-82
2022/08/22 03:04:20;;;;;;;2.17;1.67;;;14.20;99.90;;;;;;5051403;28;20064;-84
2022/08/22 03:07:04;;;;;;;6.35;2.20;;;14.20;99.90;;;;;;5044294;28;20029;-84
2022/08/22 03:09:39;;;;;;;4.10;2.15;;;14.20;99.90;;;;;;5046122;28;20363;-83
2022/08/22 03:12:17;;;;;;;2.67;1.70;;;14.20;99.90;;;;;;5040823;28;20390;-84
2022/08/22 03:14:53;;;;;;;3.13;2.38;;;14.20;99.90;;;;;;5034248;28;20035;-86
2022/08/22 03:17:29;;;;;;;3.75;1.80;;;14.30;99.90;;;;;;5047350;28;20029;-86
2022/08/22 03:20:00;;;;;;;;;;;14.20;99.90;;;;;;5043996;28;20108;-83
2022/08/22 03:22:39;;;;;;;8.57;2.05;;;14.20;99.90;;;;;;5042530;28;19923;-83
2022/08/22 03:25:20;;;;;;;3.47;2.13;;;14.20;99.90;;;;;;5039059;28;20091;-83
2022/08/22 03:28:10;;;;;;;6.65;2.30;;;14.20;99.90;;;;;;5045111;28;20026;-83
2022/08/22 03:30:41;;;;;;;4.38;2.10;;;14.10;99.90;;;;;;5050912;28;20041;-82
2022/08/22 03:33:17;;;;;;;4.60;2.10;;;14.00;99.90;;;;;;5046791;28;20047;-84
2022/08/22 03:35:45;;;;;;;4.40;2.10;;;14.10;99.90;;;;;;5049033;28;20029;-84
2022/08/22 03:38:29;;;;;;;5.80;2.00;;;14.00;99.90;;;;;;5052386;28;20485;-84
2022/08/22 03:41:20;;;;;;;4.22;1.85;;;14.00;99.90;;;;;;5035662;28;20029;-85
2022/08/22 03:43:54;;;;;;;2.92;2.10;;;14.00;99.90;;;;;;5065725;28;20037;-87
2022/08/22 03:46:38;;;;;;;3.17;2.03;;;14.00;99.90;;;;;;5051460;28;20041;-85
2022/08/22 03:49:13;;;;;;;3.78;2.25;;;14.00;99.90;;;;;;5035299;28;20125;-85
2022/08/22 03:52:05;;;;;;;2.80;1.77;;;14.00;99.90;;;;;;5045312;28;20423;-83
2022/08/22 03:55:05;;;;;;;4.03;2.42;;;14.00;99.90;;;;;;5054998;28;20291;-83
2022/08/22 03:57:49;;;;;;;3.75;1.85;;;14.00;99.90;;;;;;5040278;28;20049;-84
2022/08/22 04:00:34;;;;;;;2.97;2.10;;;14.00;99.90;;;;;;5052261;28;20025;-84
2022/08/22 04:03:29;;;;;;;3.63;2.00;;;14.00;99.90;;;;;;5044458;28;20390;-83
2022/08/22 04:06:07;;;;;;;3.95;1.85;;;14.00;99.90;;;;;;5044566;28;20051;-84
2022/08/22 04:08:36;;;;;;;8.75;3.10;;;13.90;99.90;;;;;;5038490;28;20033;-87
2022/08/22 04:11:23;;;;;;;2.25;1.75;;;13.90;99.90;;;;;;5032718;28;20026;-84
2022/08/22 04:14:10;;;;;;;4.38;1.90;;;13.90;99.90;;;;;;5036741;28;20024;-84
2022/08/22 04:16:44;;;;;;;2.63;1.83;;;13.80;99.90;;;;;;5030908;28;20033;-84
2022/08/22 04:19:22;;;;;;;4.07;2.15;;;13.90;99.90;;;;;;5032051;28;20439;-83
2022/08/22 04:22:07;;;;;;;5.35;2.08;;;13.90;99.90;;;;;;5030396;28;20292;-85
2022/08/22 04:24:45;;;;;;;2.88;2.20;;;13.80;99.90;;;;;;5025538;28;20029;-85
2022/08/22 04:27:13;;;;;;;3.75;2.05;;;13.90;99.90;;;;;;5028639;28;20623;-85
2022/08/22 04:30:05;;;;;;;6.68;2.47;;;13.80;99.90;;;;;;5025908;28;20033;-88
2022/08/22 04:32:41;;;;;;;3.47;2.00;;;13.80;99.90;;;;;;5025105;28;20083;-84
2022/08/22 04:35:39;;;;;;;2.30;2.10;;;13.80;99.90;;;;;;5027087;28;20029;-84
2022/08/22 04:38:15;;;;;;;5.30;2.42;;;13.80;99.90;;;;;;5022589;28;20565;-85
2022/08/22 04:40:56;;;;;;;2.88;1.77;;;13.80;99.90;;;;;;5031280;28;20037;-84
2022/08/22 04:43:27;;;;;;;4.40;2.17;;;13.80;99.90;;;;;;5031664;28;20091;-84
2022/08/22 04:46:18;;;;;;;5.65;2.25;;;13.80;99.90;;;;;;5034756;28;20065;-84
2022/08/22 04:48:53;;;;;;;4.88;2.10;;;13.80;99.90;;;;;;5029608;28;20040;-83
2022/08/22 04:51:30;;;;;;;5.05;2.72;;;13.80;99.90;;;;;;5032268;28;20026;-87
2022/08/22 04:54:11;;;;;;;3.53;2.38;;;13.80;99.90;;;;;;5032139;28;20124;-84
2022/08/22 04:57:10;;;;;;;5.15;2.10;;;13.80;99.90;;;;;;5028487;28;20117;-83
2022/08/22 04:59:36;;;;;;;4.55;2.25;;;13.90;99.90;;;;;;5037544;28;20083;-84
2022/08/22 05:02:07;;;;;;;2.45;2.10;;;13.80;99.90;;;;;;5030224;28;20037;-87
2022/08/22 05:04:50;;;;;;;3.92;1.80;;;13.80;99.90;;;;;;5029445;28;20029;-86
2022/08/22 05:07:25;;;;;;;9.20;2.70;;;13.80;99.90;;;;;;5030660;28;20044;-87
2022/08/22 05:09:59;;;;;;;6.50;2.50;;;13.80;99.90;;;;;;5028225;28;20150;-84
2022/08/22 05:12:32;;;;;;;7.13;2.72;;;13.80;99.90;;;;;;5039152;28;20036;-84
2022/08/22 05:15:07;;;;;;;6.35;2.60;;;13.80;99.90;;;;;;5027104;28;20432;-83
2022/08/22 05:17:33;;;;;;;2.35;1.88;;;13.90;99.90;;;;;;5025123;28;20034;-86
2022/08/22 05:20:06;;;;;;;4.38;2.38;;;13.90;99.90;;;;;;5043215;28;20033;-84
2022/08/22 05:22:38;;;;;;;3.35;2.15;;;13.90;99.90;;;;;;5031788;28;20036;-84
2022/08/22 05:25:13;;;;;;;3.65;2.03;;;14.00;99.90;;;;;;5025421;28;20041;-85
2022/08/22 05:27:45;;;;;;;2.72;2.42;;;14.10;99.90;;;;;;5023278;28;20033;-83
2022/08/22 05:30:21;;;;;;;4.60;3.08;;;14.20;99.90;;;;;;5024990;28;20574;-84
2022/08/22 05:33:03;;;;;;;2.47;2.08;;;14.20;99.90;;;;;;5030280;28;20390;-86
2022/08/22 05:35:39;;;;;;;2.75;2.00;;;14.20;99.90;;;;;;5019930;28;20026;-84
2022/08/22 05:38:10;;;;;;;2.28;2.03;;;14.30;99.90;;;;;;5028508;28;20364;-85
2022/08/22 05:40:37;;;;;;;3.08;2.10;;;14.40;99.90;;;;;;5029815;28;20363;-85
2022/08/22 05:43:05;;;;;;;4.57;2.15;;;14.40;99.90;;;;;;5038716;28;20509;-87
2022/08/22 05:45:33;;;;;;;2.75;2.10;;;14.50;99.90;;;;;;5029575;28;20057;-85
2022/08/22 05:48:04;;;;;;;1.65;1.55;;;14.50;99.90;;;;;;5037543;28;20037;-84
2022/08/22 05:50:43;;;;;;;4.40;2.17;;;14.60;99.90;;;;;;5029223;28;20029;-84
2022/08/22 05:53:39;;;;;;;5.30;2.50;;;14.70;99.90;;;;;;5028699;28;20116;-85
2022/08/22 05:56:33;;;;;;;3.65;2.25;;;14.80;99.90;;;;;;5021401;28;20045;-85
2022/08/22 05:59:25;;;;;;;4.72;2.15;;;14.80;99.90;;;;;;5033751;28;20024;-84
2022/08/22 06:01:58;;;;;;;4.45;2.03;;;14.90;99.90;;;;;;5026414;28;20025;-85
2022/08/22 06:04:39;;;;;;;3.35;1.92;;;15.10;99.90;;;;;;5033288;28;20112;-84
2022/08/22 06:07:20;;;;;;;3.65;1.73;;;15.10;99.90;;;;;;5028522;28;20029;-85
2022/08/22 06:09:45;;;;;;;3.92;2.20;;;15.20;99.90;;;;;;5031953;28;20076;-84
2022/08/22 06:12:34;;;;;;;2.53;1.85;;;15.30;99.90;;;;;;5033656;28;20048;-84
2022/08/22 06:15:13;;;;;;;4.97;1.80;;;15.40;99.90;;;;;;5024132;28;20022;-84
2022/08/22 06:17:46;;;;;;;4.90;2.15;;;15.50;99.90;;;;;;5027508;28;20064;-84
2022/08/22 06:20:23;;;;;;;5.10;1.90;;;15.50;99.90;;;;;;5029288;28;20079;-84
2022/08/22 06:22:52;;;;;;;5.63;1.90;;;15.60;99.90;;;;;;5023744;28;20029;-84
2022/08/22 06:25:31;;;;;;;3.38;2.13;;;15.80;99.90;;;;;;5041930;28;20061;-84
2022/08/22 06:28:01;;;;;;;3.50;1.63;;;15.80;99.90;;;;;;5029544;28;20087;-83
2022/08/22 06:30:28;;;;;;;6.47;2.80;;;15.90;99.90;;;;;;5019326;28;20064;-84
2022/08/22 06:33:03;;;;;;;5.78;2.42;;;16.00;99.90;;;;;;5034165;28;20482;-83
2022/08/22 06:38:38;;;;;;;6.90;2.58;;;16.20;99.90;;;;;;5025752;28;20193;-84
2022/08/22 06:41:07;;;;;;;6.00;2.83;;;16.30;99.90;;;;;;5027606;28;20030;-85
2022/08/22 06:43:42;;;;;;;7.22;2.55;;;16.50;99.90;;;;;;5031700;28;20034;-86
2022/08/22 06:46:09;;;;;;;9.23;2.05;;;16.50;99.90;;;;;;5025950;28;20033;-84
2022/08/22 06:48:36;;;;;;;9.93;2.60;;;16.60;99.90;;;;;;5029586;28;20053;-84
2022/08/22 06:51:05;;;;;;;11.63;2.97;;;16.70;99.90;;;;;;5033603;28;20080;-85
2022/08/22 06:53:39;;;;;;;7.85;2.67;;;16.80;99.90;;;;;;5035506;28;20053;-85
2022/08/22 06:56:06;;;;;;;8.60;2.47;;;16.90;99.90;;;;;;5028533;28;20095;-83
2022/08/22 06:58:44;;;;;;;11.82;2.58;;;16.90;99.90;;;;;;5026419;28;20442;-85
2022/08/22 07:01:21;;;;;;;4.55;2.10;;;17.10;99.90;;;;;;5025805;28;20057;-83
2022/08/22 07:03:51;;;;;;;10.55;2.45;;;17.10;99.90;;;;;;5027473;28;20021;-84
2022/08/22 07:06:30;;;;;;;8.60;2.88;;;17.10;99.90;;;;;;5022669;28;20429;-84
2022/08/22 07:08:57;;;;;;;12.98;2.80;;;17.20;99.90;;;;;;5027351;28;20520;-83
2022/08/22 07:11:32;;;;;;;8.18;2.67;;;17.20;99.90;;;;;;5027516;28;20099;-84
2022/08/22 07:13:58;;;;;;;;;;;17.30;99.90;;;;;;5028666;28;20083;-83
2022/08/22 07:16:40;;;;;;;5.05;2.78;;;17.40;99.90;;;;;;5027450;28;19916;-83
2022/08/22 07:19:07;;;;;;;8.15;2.97;;;17.40;99.90;;;;;;5031896;28;20037;-83
2022/08/22 07:21:46;;;;;;;10.73;2.83;;;17.50;99.90;;;;;;5031819;28;20486;-83
2022/08/22 07:24:20;;;;;;;6.25;2.35;;;17.60;99.90;;;;;;5022966;28;20474;-83
2022/08/22 07:27:08;;;;;;;5.78;2.40;;;17.60;99.90;;;;;;5029075;28;20029;-83
2022/08/22 07:29:46;;;;;;;10.95;3.22;;;17.60;99.90;;;;;;5027743;28;20029;-84
2022/08/22 07:32:40;;;;;;;7.95;2.88;;;17.70;99.90;;;;;;5023634;28;20033;-83
2022/08/22 07:35:21;;;;;;;8.85;2.78;;;17.80;99.90;;;;;;5035608;28;20044;-83
2022/08/22 07:38:27;;;;;;;9.90;2.55;;;17.80;99.90;;;;;;5027395;28;20037;-83
2022/08/22 07:41:14;;;;;;;13.57;3.17;;;18.00;99.90;;;;;;5023510;28;20026;-83
2022/08/22 07:43:55;;;;;;;10.00;2.90;;;18.20;99.90;;;;;;5029948;28;20417;-89
2022/08/22 07:46:32;;;;;;;12.35;3.00;;;18.30;99.90;;;;;;5030644;28;20029;-84
2022/08/22 07:49:36;;;;;;;11.90;2.88;;;18.40;99.90;;;;;;5031464;28;20029;-83
2022/08/22 07:52:09;;;;;;;9.65;2.92;;;18.60;99.90;;;;;;5010345;28;20069;-83
2022/08/22 07:55:00;;;;;;;7.88;2.25;;;18.70;99.90;;;;;;5036965;28;20052;-84
2022/08/22 07:57:31;;;;;;;9.35;2.50;;;18.70;99.90;;;;;;5021464;28;20115;-83
2022/08/22 08:00:00;;;;;;;10.93;2.83;;;18.60;99.90;;;;;;5041024;28;20029;-83
2022/08/22 08:02:27;;;;;;;7.00;2.17;;;18.70;99.90;;;;;;5034650;28;20067;-82
2022/08/22 08:04:55;;;;;;;10.23;3.22;;;18.70;99.90;;;;;;5037561;28;20026;-83
2022/08/22 08:07:25;;;;;;;8.43;2.38;;;18.70;99.90;;;;;;5030931;28;20041;-83
2022/08/22 08:10:09;;;;;;;5.43;2.42;;;18.70;99.90;;;;;;5037074;28;20112;-83
2022/08/22 08:12:43;;;;;;;7.38;2.80;;;18.80;99.90;;;;;;5028135;28;20029;-83
2022/08/22 08:15:16;;;;;;;6.82;2.42;;;18.80;99.90;;;;;;5031524;28;20040;-82
2022/08/22 08:17:43;;;;;;;22.98;2.70;;;18.90;99.90;;;;;;5028518;28;20030;-83
2022/08/22 08:20:13;;;;;;;11.82;3.05;;;19.00;99.90;;;;;;5035782;28;20049;-82
2022/08/22 08:22:41;;;;;;;13.07;2.83;;;19.00;99.90;;;;;;5033042;28;20191;-82
2022/08/22 08:25:11;;;;;;;14.02;3.28;;;19.00;99.90;;;;;;5038536;28;20091;-83
2022/08/22 08:30:24;;;;;;;8.77;2.72;;;19.10;99.90;;;;;;5024009;28;20280;-83
2022/08/22 08:32:56;;;;;;;8.20;2.85;;;19.20;99.90;;;;;;5044237;28;20176;-84
2022/08/22 08:35:26;;;;;;;7.80;3.17;;;19.20;99.90;;;;;;5036955;28;20036;-82
2022/08/22 08:38:07;;;;;;;5.45;2.08;;;19.30;99.90;;;;;;5024305;28;20052;-83
2022/08/22 08:40:32;;;;;;;7.20;2.95;;;19.30;99.90;;;;;;5025697;28;20037;-84
2022/08/22 08:45:55;;;;;;;10.60;2.88;;;19.50;99.90;;;;;;5027154;28;20044;-83
2022/08/22 08:48:45;;;;;;;10.88;2.60;;;19.50;99.90;;;;;;5034493;28;20025;-83
2022/08/22 08:51:49;;;;;;;9.63;3.50;;;19.60;99.90;;;;;;5031412;28;20099;-82
2022/08/22 08:54:42;;;;;;;7.00;2.08;;;19.60;99.90;;;;;;5030252;28;20022;-82
2022/08/22 08:57:29;;;;;;;15.02;3.25;;;19.70;99.90;;;;;;5022493;28;20053;-83
2022/08/22 09:00:15;;;;;;;10.05;3.22;;;19.80;99.90;;;;;;5033535;28;20119;-82
2022/08/22 09:03:13;;;;;;;10.73;2.92;;;20.00;99.90;;;;;;5022158;28;20036;-83
2022/08/22 09:06:06;;;;;;;11.20;3.40;;;20.10;99.90;;;;;;5030610;28;20452;-83
2022/08/22 09:08:54;;;;;;;7.70;2.45;;;20.30;99.90;;;;;;5029848;28;20386;-83
2022/08/22 09:11:45;;;;;;;11.27;2.97;;;20.40;99.90;;;;;;5017893;28;20042;-83
2022/08/22 09:14:41;;;;;;;19.67;2.97;;;20.50;99.90;;;;;;5029713;28;20060;-82
2022/08/22 09:17:26;;;;;;;12.13;2.70;;;20.60;99.90;;;;;;5031729;28;20084;-82
2022/08/22 09:20:04;;;;;;;10.30;2.97;;;20.70;99.90;;;;;;5036881;28;20067;-83
2022/08/22 09:22:40;;;;;;;9.43;2.92;;;20.80;99.90;;;;;;5031713;28;20132;-82
2022/08/22 09:25:20;;;;;;;6.32;2.42;;;20.90;99.90;;;;;;5036560;28;20036;-83
2022/08/22 09:28:04;;;;;;;5.60;2.00;;;20.90;99.90;;;;;;5037847;28;20478;-83
2022/08/22 09:31:18;;;;;;;8.07;3.00;;;20.90;99.90;;;;;;5029632;28;20489;-82
2022/08/22 09:34:02;;;;;;;6.57;2.42;;;20.90;99.90;;;;;;5014904;28;20037;-83
2022/08/22 09:36:47;;;;;;;7.45;2.80;;;21.00;99.90;;;;;;5030608;28;20075;-82
2022/08/22 09:39:34;;;;;;;7.72;2.20;;;21.10;99.90;;;;;;5030171;28;20367;-82
2022/08/22 09:42:37;;;;;;;11.25;2.30;;;21.10;99.90;;;;;;5030672;28;20052;-82
2022/08/22 09:45:25;;;;;;;12.50;2.53;;;21.20;99.90;;;;;;5030436;28;20082;-83
2022/08/22 09:48:02;;;;;;;8.80;2.13;;;21.20;99.90;;;;;;5031235;28;20469;-82
2022/08/22 09:50:42;;;;;;;9.73;2.55;;;21.30;99.90;;;;;;5014246;28;20028;-84
2022/08/22 09:53:44;;;;;;;14.52;2.53;;;21.40;99.90;;;;;;5026205;28;20029;-84
2022/08/22 09:56:22;;;;;;;10.23;2.40;;;21.50;99.90;;;;;;5027386;28;20057;-86
2022/08/22 09:59:06;;;;;;;9.88;2.30;;;21.60;99.90;;;;;;5021854;28;20429;-85
2022/08/22 10:01:59;;;;;;;9.30;2.70;;;21.60;99.90;;;;;;5030320;28;20034;-87
2022/08/22 10:04:49;;;;;;;7.55;2.60;;;21.70;99.90;;;;;;5030762;28;20417;-86
2022/08/22 10:07:36;;;;;;;12.27;2.30;;;21.80;99.90;;;;;;5023373;28;20052;-86
2022/08/22 10:10:24;;;;;;;4.30;1.88;;;21.90;99.90;;;;;;5030006;28;20041;-84
2022/08/22 10:13:14;;;;;;;9.10;2.63;;;21.90;99.90;;;;;;5028493;28;20041;-84
2022/08/22 10:16:06;;;;;;;6.55;2.03;;;22.00;99.90;;;;;;5021430;28;20025;-82
2022/08/22 10:18:46;;;;;;;10.98;2.90;;;22.10;99.90;;;;;;5028676;28;20053;-82
2022/08/22 10:21:44;;;;;;;7.45;2.42;;;22.20;99.90;;;;;;5029856;28;20032;-83
2022/08/22 10:24:40;;;;;;;7.05;2.60;;;22.20;99.90;;;;;;5028979;28;20045;-83
2022/08/22 10:27:12;;;;;;;;;;;22.30;99.90;;;;;;5035071;28;20034;-83
2022/08/22 10:29:56;;;;;;;7.07;1.90;;;22.30;99.90;;;;;;5030392;28;19948;-83
2022/08/22 10:32:34;;;;;;;8.05;2.47;;;22.20;99.80;;;;;;5025521;28;20038;-84
2022/08/22 10:35:15;;;;;;;6.55;2.00;;;22.30;99.90;;;;;;5017056;28;20443;-84
2022/08/22 10:37:57;;;;;;;6.28;2.28;;;22.40;99.90;;;;;;5033874;28;20037;-83
2022/08/22 10:40:33;;;;;;;9.02;2.42;;;22.60;99.90;;;;;;5042158;28;20020;-82
2022/08/22 10:43:24;;;;;;;7.45;2.47;;;22.70;97.40;;;;;;5033299;28;20026;-82
2022/08/22 10:46:05;;;;;;;5.93;2.00;;;22.70;95.80;;;;;;5032463;28;20033;-84
2022/08/22 10:48:39;;;;;;;4.63;1.58;;;22.70;96.40;;;;;;5033435;28;20079;-82
2022/08/22 10:51:35;;;;;;;5.85;2.10;;;22.70;96.20;;;;;;5026742;28;20033;-84
2022/08/22 10:54:28;;;;;;;4.88;1.80;;;22.70;93.40;;;;;;5028905;28;20493;-86
2022/08/22 10:57:18;;;;;;;7.40;2.05;;;22.80;94.20;;;;;;5028094;28;20110;-82
2022/08/22 10:59:46;;;;;;;10.10;2.22;;;22.90;93.20;;;;;;5036750;28;20056;-82
2022/08/22 11:02:35;;;;;;;7.63;1.90;;;22.90;90.40;;;;;;5035931;28;20049;-82
2022/08/22 11:05:21;;;;;;;6.80;2.05;;;22.90;91.90;;;;;;5027049;28;20036;-82
2022/08/22 11:08:19;;;;;;;3.58;1.70;;;22.90;94.20;;;;;;5030232;28;20180;-82
2022/08/22 11:11:00;;;;;;;6.40;2.70;;;23.00;87.20;;;;;;5028643;28;20060;-82
2022/08/22 11:13:47;;;;;;;4.68;1.63;;;23.00;84.50;;;;;;5024383;28;20033;-84
2022/08/22 11:16:37;;;;;;;10.25;2.03;;;23.00;84.30;;;;;;5026814;28;20044;-81
2022/08/22 11:19:23;;;;;;;5.57;1.85;;;23.00;82.30;;;;;;5039360;28;20045;-83
2022/08/22 11:22:26;;;;;;;5.28;2.15;;;23.10;80.10;;;;;;5026920;28;20033;-84
2022/08/22 11:25:05;;;;;;;5.22;1.80;;;23.10;76.70;;;;;;5038755;28;20029;-82
2022/08/22 11:27:33;;;;;;;11.00;2.47;;;23.10;74.80;;;;;;5028114;28;20041;-82
2022/08/22 11:30:28;;;;;;;3.88;1.73;;;23.30;72.60;;;;;;5037478;28;20417;-82
2022/08/22 11:32:57;;;;;;;5.30;1.52;;;23.30;74.30;;;;;;5037272;28;20042;-82
2022/08/22 11:35:43;;;;;;;10.30;2.35;;;23.30;78.20;;;;;;5036918;28;20070;-82
2022/08/22 11:38:30;;;;;;;6.50;2.35;;;23.20;78.00;;;;;;5042171;28;20029;-82
2022/08/22 11:41:15;;;;;;;5.45;1.92;;;23.20;76.80;;;;;;5036942;28;20438;-82
2022/08/22 11:44:07;;;;;;;9.80;2.05;;;23.30;75.70;;;;;;5023546;28;20088;-83
2022/08/22 11:46:44;;;;;;;7.95;1.65;;;23.30;73.00;;;;;;5033068;28;20065;-84
2022/08/22 11:49:21;;;;;;;9.20;2.45;;;23.30;72.60;;;;;;5033428;28;20387;-82
2022/08/22 11:52:08;;;;;;;6.75;1.92;;;23.40;69.90;;;;;;5029259;28;20095;-82
2022/08/22 11:55:08;;;;;;;8.70;1.75;;;23.40;70.00;;;;;;5034133;28;20474;-85
2022/08/22 11:57:42;;;;;;;8.02;1.88;;;23.40;69.50;;;;;;5036915;28;20080;-83
2022/08/22 12:00:31;;;;;;;6.60;2.00;;;23.40;68.50;;;;;;5021789;28;20124;-82
2022/08/22 12:03:16;;;;;;;6.20;2.10;;;23.40;72.10;;;;;;5029645;28;20037;-81
2022/08/22 12:05:47;;;;;;;3.67;1.60;;;23.40;68.40;;;;;;5045643;28;20052;-83
2022/08/22 12:08:22;;;;;;;11.30;2.30;;;23.40;66.20;;;;;;5031925;28;20283;-81
2022/08/22 12:11:10;;;;;;;4.47;1.88;;;23.40;65.40;;;;;;5032442;28;20445;-83
2022/08/22 12:14:02;;;;;;;10.18;2.28;;;23.30;64.80;;;;;;5038663;28;20037;-82
2022/08/22 12:16:34;;;;;;;7.32;2.05;;;23.40;65.80;;;;;;5031409;28;20044;-82
2022/08/22 12:19:31;;;;;;;9.18;1.90;;;23.50;66.60;;;;;;5039860;28;20029;-82
2022/08/22 12:22:33;;;;;;;5.20;1.77;;;23.70;67.00;;;;;;5033043;28;20033;-82
2022/08/22 12:25:07;;;;;;;11.25;2.08;;;23.80;61.10;;;;;;5026338;28;20025;-82
2022/08/22 12:27:50;;;;;;;5.68;1.95;;;23.90;62.80;;;;;;5030811;28;20087;-87
2022/08/22 12:30:44;;;;;;;9.55;1.75;;;24.00;60.70;;;;;;5031313;28;20096;-83
2022/08/22 12:33:35;;;;;;;4.35;1.70;;;24.10;57.60;;;;;;5025542;28;20498;-83
2022/08/22 12:36:28;;;;;;;5.53;2.00;;;24.20;57.50;;;;;;5039556;28;20103;-82
2022/08/22 12:39:43;;;;;;;4.20;1.35;;;24.20;57.20;;;;;;5045980;28;20442;-82
2022/08/22 12:42:26;;;;;;;4.88;1.67;;;24.20;57.20;;;;;;5024142;28;20487;-82
2022/08/22 12:45:20;;;;;;;6.50;2.10;;;24.30;58.10;;;;;;5027000;28;20060;-82
2022/08/22 12:48:10;;;;;;;3.42;1.40;;;24.40;55.80;;;;;;5031887;28;20037;-83
2022/08/22 12:50:42;;;;;;;3.90;1.50;;;24.40;56.00;;;;;;5033507;28;20057;-82
2022/08/22 12:53:29;;;;;;;6.60;1.73;;;24.50;55.90;;;;;;5038095;28;20126;-82
2022/08/22 12:56:10;;;;;;;4.97;1.65;;;24.60;54.60;;;;;;5033744;28;20024;-82
2022/08/22 12:59:19;;;;;;;3.22;1.60;;;24.60;53.60;;;;;;5029432;28;20046;-82
2022/08/22 13:01:51;;;;;;;4.57;1.50;;;24.60;53.70;;;;;;5035776;28;20033;-82
2022/08/22 13:04:22;;;;;;;4.50;1.52;;;24.50;54.80;;;;;;5038619;28;20052;-85
2022/08/22 13:06:51;;;;;;;12.25;1.83;;;24.50;54.60;;;;;;5037248;28;20466;-82
2022/08/22 13:09:36;;;;;;;5.75;1.50;;;24.40;51.60;;;;;;5033674;28;20037;-82
2022/08/22 13:12:22;;;;;;;4.10;1.60;;;24.40;51.70;;;;;;5035937;28;20036;-84
2022/08/22 13:14:57;;;;;;;;;;;24.30;53.60;;;;;;5024192;28;20060;-82
2022/08/22 13:17:24;;;;;;;4.70;1.67;;;24.30;53.00;;;;;;5019394;28;20448;-82
2022/08/22 13:20:08;;;;;;;7.97;1.50;;;24.40;54.30;;;;;;5035971;28;20474;-82
2022/08/22 13:22:38;;;;;;;3.00;1.58;;;24.40;53.90;;;;;;5030941;28;20490;-82
2022/08/22 13:25:14;;;;;;;5.68;2.13;;;24.40;53.90;;;;;;5031430;28;20037;-82
2022/08/22 13:27:43;;;;;;;3.55;1.63;;;24.30;52.40;;;;;;5023769;28;20030;-81
2022/08/22 13:30:21;;;;;;;4.90;1.90;;;24.30;51.70;;;;;;5028113;28;20037;-82
2022/08/22 13:32:53;;;;;;;4.32;1.30;;;24.30;51.10;;;;;;5026343;28;20405;-83
2022/08/22 13:35:25;;;;;;;4.10;1.55;;;24.40;50.90;;;;;;5031502;28;20079;-84
2022/08/22 13:38:02;;;;;;;10.48;1.42;;;24.40;51.30;;;;;;5030433;28;20124;-83
2022/08/22 13:40:30;;;;;;;7.30;2.00;;;24.40;50.80;;;;;;5023702;28;20431;-82
2022/08/22 13:43:09;;;;;;;7.15;1.88;;;24.40;50.90;;;;;;5031671;28;20033;-82
2022/08/22 13:45:39;;;;;;;3.58;1.60;;;24.50;52.20;;;;;;5029153;28;20057;-82
2022/08/22 13:48:11;;;;;;;5.07;1.75;;;24.50;52.50;;;;;;5030612;28;20033;-83
2022/08/22 13:51:02;;;;;;;4.63;1.40;;;24.60;53.20;;;;;;5032196;28;20025;-81
2022/08/22 13:53:42;;;;;;;3.30;1.40;;;24.70;52.50;;;;;;5028649;28;20131;-81
2022/08/22 13:56:20;;;;;;;9.82;1.75;;;24.60;51.70;;;;;;5031542;28;20563;-83
2022/08/22 13:58:52;;;;;;;5.75;1.88;;;24.70;51.60;;;;;;5029424;28;20048;-83
2022/08/22 14:01:37;;;;;;;7.45;1.85;;;24.60;52.40;;;;;;5024723;28;20497;-85
2022/08/22 14:04:18;;;;;;;5.63;1.77;;;24.60;52.40;;;;;;5028772;28;20033;-83
2022/08/22 14:07:04;;;;;;;2.97;1.70;;;24.50;53.20;;;;;;5024832;28;20034;-83
2022/08/22 14:09:51;;;;;;;15.93;2.17;;;24.50;53.60;;;;;;5025170;28;20026;-83